createdAt,value
2023-04-04T00:00:23.097Z,0
2023-04-04T00:01:23.095Z,0
2023-04-04T00:02:23.140Z,0
2023-04-04T00:03:23.197Z,0
2023-04-04T00:04:23.114Z,0
2023-04-04T00:05:23.102Z,0
2023-04-04T00:06:23.282Z,0
2023-04-04T00:07:23.105Z,0
2023-04-04T00:08:23.106Z,0
2023-04-04T00:09:23.107Z,0
2023-04-04T00:10:23.107Z,0
2023-04-04T00:11:23.107Z,0
2023-04-04T00:12:24.494Z,0
2023-04-04T00:13:23.107Z,0
2023-04-04T00:14:23.119Z,0
2023-04-04T00:15:23.115Z,0
2023-04-04T00:16:23.202Z,0
2023-04-04T00:17:23.110Z,0
2023-04-04T00:18:23.116Z,0
2023-04-04T00:19:23.110Z,0
2023-04-04T00:20:23.121Z,0
2023-04-04T00:21:23.114Z,0
2023-04-04T00:22:23.138Z,0
2023-04-04T00:23:23.114Z,0
2023-04-04T00:24:23.115Z,0
2023-04-04T00:25:23.119Z,0
2023-04-04T00:26:23.118Z,0
2023-04-04T00:27:23.118Z,0
2023-04-04T00:28:23.121Z,0
2023-04-04T00:29:23.123Z,0
2023-04-04T00:30:23.129Z,0
2023-04-04T00:31:23.140Z,0
2023-04-04T00:32:23.240Z,0
2023-04-04T00:33:23.152Z,0
2023-04-04T00:34:23.119Z,0
2023-04-04T00:35:23.124Z,0
2023-04-04T00:36:23.123Z,0
2023-04-04T00:37:23.131Z,0
2023-04-04T00:38:23.154Z,0
2023-04-04T00:39:23.126Z,0
2023-04-04T00:40:23.128Z,0
2023-04-04T00:41:23.129Z,0
2023-04-04T00:42:23.140Z,0
2023-04-04T00:43:23.133Z,0
2023-04-04T00:44:23.134Z,0
2023-04-04T00:45:23.224Z,0
2023-04-04T00:46:23.129Z,0
2023-04-04T00:47:23.169Z,0
2023-04-04T00:48:23.130Z,0
2023-04-04T00:49:23.132Z,0
2023-04-04T00:50:23.133Z,0
2023-04-04T00:51:23.132Z,0
2023-04-04T00:52:23.224Z,0
2023-04-04T00:53:23.135Z,0
2023-04-04T00:54:23.160Z,0
2023-04-04T00:55:23.139Z,0
2023-04-04T00:56:23.153Z,0
2023-04-04T00:57:23.136Z,0
2023-04-04T00:58:23.136Z,0
2023-04-04T00:59:23.159Z,0
2023-04-04T01:00:23.152Z,0
2023-04-04T01:01:23.184Z,0
2023-04-04T01:02:23.155Z,0
2023-04-04T01:03:23.146Z,0
2023-04-04T01:04:23.195Z,0
2023-04-04T01:05:23.141Z,0
2023-04-04T01:06:23.139Z,0
2023-04-04T01:07:23.146Z,0
2023-04-04T01:08:23.155Z,0
2023-04-04T01:09:23.145Z,0
2023-04-04T01:10:23.166Z,0
2023-04-04T01:11:23.144Z,0
2023-04-04T01:12:23.140Z,0
2023-04-04T01:13:23.143Z,0
2023-04-04T01:14:23.153Z,0
2023-04-04T01:15:23.157Z,0
2023-04-04T01:16:23.148Z,0
2023-04-04T01:17:23.146Z,0
2023-04-04T01:18:23.143Z,0
2023-04-04T01:19:23.141Z,0
2023-04-04T01:20:23.152Z,0
2023-04-04T01:21:23.149Z,0
2023-04-04T01:22:23.143Z,0
2023-04-04T01:23:23.143Z,0
2023-04-04T01:24:23.141Z,0
2023-04-04T01:25:23.143Z,0
2023-04-04T01:26:23.163Z,0
2023-04-04T01:27:23.140Z,0
2023-04-04T01:28:23.146Z,0
2023-04-04T01:29:23.144Z,0
2023-04-04T01:30:23.149Z,0
2023-04-04T01:31:23.308Z,0
2023-04-04T01:32:23.143Z,0
2023-04-04T01:33:23.141Z,0
2023-04-04T01:34:23.154Z,0
2023-04-04T01:35:23.141Z,0
2023-04-04T01:36:23.154Z,0
2023-04-04T01:37:23.144Z,0
2023-04-04T01:38:23.153Z,0
2023-04-04T01:39:23.149Z,0
2023-04-04T01:40:23.153Z,0
2023-04-04T01:41:23.155Z,0
2023-04-04T01:42:23.214Z,0
2023-04-04T01:43:23.157Z,0
2023-04-04T01:44:23.152Z,0
2023-04-04T01:45:23.174Z,0
2023-04-04T01:46:23.197Z,0
2023-04-04T01:47:23.157Z,0
2023-04-04T01:48:23.159Z,0
2023-04-04T01:49:23.172Z,0
2023-04-04T01:50:23.160Z,0
2023-04-04T01:51:23.162Z,0
2023-04-04T01:52:23.166Z,0
2023-04-04T01:53:23.168Z,0
2023-04-04T01:54:23.167Z,0
2023-04-04T01:55:23.167Z,0
2023-04-04T01:56:23.169Z,0
2023-04-04T01:57:23.164Z,0
2023-04-04T01:58:23.188Z,0
2023-04-04T01:59:23.185Z,0
2023-04-04T02:00:23.174Z,0
2023-04-04T02:01:23.205Z,0
2023-04-04T02:02:23.194Z,0
2023-04-04T02:03:23.172Z,0
2023-04-04T02:04:23.213Z,0
2023-04-04T02:05:23.178Z,0
2023-04-04T02:06:23.178Z,0
2023-04-04T02:07:23.185Z,0
2023-04-04T02:08:23.186Z,0
2023-04-04T02:09:23.184Z,0
2023-04-04T02:10:23.183Z,0
2023-04-04T02:11:23.186Z,0
2023-04-04T02:12:23.217Z,0
2023-04-04T02:13:23.184Z,0
2023-04-04T02:14:23.208Z,0
2023-04-04T02:15:23.183Z,0
2023-04-04T02:16:23.252Z,0
2023-04-04T02:17:23.195Z,0
2023-04-04T02:18:23.188Z,0
2023-04-04T02:19:23.192Z,0
2023-04-04T02:20:23.197Z,0
2023-04-04T02:21:23.190Z,0
2023-04-04T02:22:23.197Z,0
2023-04-04T02:23:23.211Z,0
2023-04-04T02:24:23.200Z,0
2023-04-04T02:25:23.208Z,0
2023-04-04T02:26:23.195Z,0
2023-04-04T02:27:23.206Z,0
2023-04-04T02:28:23.203Z,0
2023-04-04T02:29:23.198Z,0
2023-04-04T02:30:23.324Z,0
2023-04-04T02:31:23.264Z,0
2023-04-04T02:32:23.210Z,0
2023-04-04T02:33:23.202Z,0
2023-04-04T02:34:23.205Z,0
2023-04-04T02:35:23.205Z,0
2023-04-04T02:36:23.214Z,0
2023-04-04T02:37:23.203Z,0
2023-04-04T02:38:23.209Z,0
2023-04-04T02:39:23.208Z,0
2023-04-04T02:40:23.207Z,0
2023-04-04T02:41:23.209Z,0
2023-04-04T02:42:23.215Z,0
2023-04-04T02:43:23.218Z,0
2023-04-04T02:44:23.229Z,0
2023-04-04T02:45:23.212Z,0
2023-04-04T02:46:23.266Z,0
2023-04-04T02:47:23.222Z,0
2023-04-04T02:48:23.218Z,0
2023-04-04T02:49:23.223Z,0
2023-04-04T02:50:23.221Z,0
2023-04-04T02:51:23.228Z,0
2023-04-04T02:52:23.238Z,0
2023-04-04T02:53:23.229Z,0
2023-04-04T02:54:23.241Z,0
2023-04-04T02:55:23.231Z,0
2023-04-04T02:56:23.233Z,0
2023-04-04T02:57:23.240Z,0
2023-04-04T02:58:23.237Z,0
2023-04-04T02:59:23.278Z,0
2023-04-04T03:00:23.240Z,0
2023-04-04T03:01:23.245Z,0
2023-04-04T03:02:23.300Z,0
2023-04-04T03:03:23.328Z,0
2023-04-04T03:04:23.253Z,0
2023-04-04T03:05:23.250Z,0
2023-04-04T03:06:23.251Z,0
2023-04-04T03:07:23.248Z,0
2023-04-04T03:08:23.244Z,0
2023-04-04T03:09:23.258Z,0
2023-04-04T03:10:23.251Z,0
2023-04-04T03:11:23.256Z,0
2023-04-04T03:12:23.257Z,0
2023-04-04T03:13:23.258Z,0
2023-04-04T03:14:23.260Z,0
2023-04-04T03:15:23.258Z,0
2023-04-04T03:16:23.265Z,0
2023-04-04T03:17:23.292Z,0
2023-04-04T03:18:23.286Z,0
2023-04-04T03:19:23.260Z,0
2023-04-04T03:20:23.259Z,0
2023-04-04T03:21:23.265Z,0
2023-04-04T03:22:23.259Z,0
2023-04-04T03:23:23.265Z,0
2023-04-04T03:24:23.274Z,0
2023-04-04T03:25:23.266Z,0
2023-04-04T03:26:23.273Z,0
2023-04-04T03:27:23.268Z,0
2023-04-04T03:28:23.271Z,0
2023-04-04T03:29:23.286Z,0
2023-04-04T03:30:23.273Z,0
2023-04-04T03:31:23.290Z,0
2023-04-04T03:32:23.292Z,0
2023-04-04T03:33:23.274Z,0
2023-04-04T03:34:23.325Z,0
2023-04-04T03:35:23.278Z,0
2023-04-04T03:36:23.280Z,0
2023-04-04T03:37:23.281Z,0
2023-04-04T03:38:23.278Z,0
2023-04-04T03:39:23.366Z,0
2023-04-04T03:40:23.288Z,0
2023-04-04T03:41:23.288Z,0
2023-04-04T03:42:23.300Z,0
2023-04-04T03:43:23.292Z,0
2023-04-04T03:44:23.294Z,0
2023-04-04T03:45:23.297Z,0
2023-04-04T03:46:23.338Z,0
2023-04-04T03:47:23.306Z,0
2023-04-04T03:48:23.297Z,0
2023-04-04T03:49:23.312Z,0
2023-04-04T03:50:23.334Z,0
2023-04-04T03:51:23.314Z,0
2023-04-04T03:52:23.303Z,0
2023-04-04T03:53:23.300Z,0
2023-04-04T03:54:23.300Z,0
2023-04-04T03:55:23.300Z,0
2023-04-04T03:56:23.304Z,0
2023-04-04T03:57:23.307Z,0
2023-04-04T03:58:23.307Z,0
2023-04-04T03:59:23.374Z,0
2023-04-04T04:00:23.308Z,0
2023-04-04T04:01:23.318Z,0
2023-04-04T04:02:23.313Z,0
2023-04-04T04:03:23.354Z,0
2023-04-04T04:04:23.356Z,0
2023-04-04T04:05:23.317Z,0
2023-04-04T04:06:23.343Z,0
2023-04-04T04:07:23.316Z,0
2023-04-04T04:08:24.730Z,0
2023-04-04T04:09:23.342Z,0
2023-04-04T04:10:23.315Z,0
2023-04-04T04:11:23.319Z,0
2023-04-04T04:12:23.322Z,0
2023-04-04T04:13:23.324Z,0
2023-04-04T04:14:23.324Z,0
2023-04-04T04:15:23.325Z,0
2023-04-04T04:16:23.354Z,0
2023-04-04T04:17:23.346Z,0
2023-04-04T04:18:23.328Z,0
2023-04-04T04:19:23.330Z,0
2023-04-04T04:20:23.329Z,0
2023-04-04T04:21:23.328Z,0
2023-04-04T04:22:23.353Z,0
2023-04-04T04:23:23.328Z,0
2023-04-04T04:24:23.354Z,2
2023-04-04T04:25:23.329Z,2
2023-04-04T04:26:23.374Z,2
2023-04-04T04:27:23.340Z,2
2023-04-04T04:28:23.341Z,2
2023-04-04T04:29:23.372Z,6
2023-04-04T04:30:23.337Z,6
2023-04-04T04:31:23.399Z,6
2023-04-04T04:32:23.343Z,6
2023-04-04T04:33:23.341Z,6
2023-04-04T04:34:23.343Z,13
2023-04-04T04:35:23.345Z,13
2023-04-04T04:36:23.359Z,13
2023-04-04T04:37:23.351Z,13
2023-04-04T04:38:23.514Z,13
2023-04-04T04:39:23.351Z,26
2023-04-04T04:40:23.349Z,26
2023-04-04T04:41:23.353Z,26
2023-04-04T04:42:23.355Z,26
2023-04-04T04:43:23.353Z,26
2023-04-04T04:44:23.354Z,47
2023-04-04T04:45:23.358Z,47
2023-04-04T04:46:23.376Z,47
2023-04-04T04:47:23.386Z,47
2023-04-04T04:48:23.364Z,47
2023-04-04T04:49:23.395Z,74
2023-04-04T04:50:23.367Z,74
2023-04-04T04:51:23.373Z,74
2023-04-04T04:52:23.368Z,74
2023-04-04T04:53:23.376Z,74
2023-04-04T04:54:23.394Z,106
2023-04-04T04:55:23.383Z,106
2023-04-04T04:56:23.375Z,106
2023-04-04T04:57:23.377Z,106
2023-04-04T04:58:23.377Z,136
2023-04-04T04:59:23.494Z,137
2023-04-04T05:00:23.383Z,137
2023-04-04T05:01:23.421Z,137
2023-04-04T05:02:23.449Z,137
2023-04-04T05:03:23.503Z,137
2023-04-04T05:04:23.387Z,178
2023-04-04T05:05:23.390Z,178
2023-04-04T05:06:23.390Z,178
2023-04-04T05:07:23.392Z,178
2023-04-04T05:08:23.397Z,178
2023-04-04T05:09:23.391Z,224
2023-04-04T05:10:23.418Z,224
2023-04-04T05:11:23.387Z,224
2023-04-04T05:12:23.389Z,224
2023-04-04T05:13:23.396Z,224
2023-04-04T05:14:23.400Z,274
2023-04-04T05:15:23.395Z,274
2023-04-04T05:16:23.402Z,274
2023-04-04T05:17:23.459Z,274
2023-04-04T05:18:23.394Z,274
2023-04-04T05:19:23.417Z,331
2023-04-04T05:20:23.397Z,331
2023-04-04T05:21:23.402Z,331
2023-04-04T05:22:23.401Z,371
2023-04-04T05:23:23.400Z,371
2023-04-04T05:24:23.407Z,371
2023-04-04T05:25:23.406Z,371
2023-04-04T05:26:23.454Z,371
2023-04-04T05:27:23.437Z,440
2023-04-04T05:28:23.412Z,440
2023-04-04T05:29:23.414Z,440
2023-04-04T05:30:23.407Z,440
2023-04-04T05:31:23.416Z,440
2023-04-04T05:32:23.431Z,945
2023-04-04T05:33:23.412Z,945
2023-04-04T05:34:23.414Z,945
2023-04-04T05:35:23.455Z,945
2023-04-04T05:36:23.444Z,945
2023-04-04T05:37:23.411Z,1403
2023-04-04T05:38:23.417Z,1403
2023-04-04T05:39:23.415Z,1403
2023-04-04T05:40:23.420Z,1403
2023-04-04T05:41:23.417Z,1403
2023-04-04T05:42:23.449Z,2191
2023-04-04T05:43:23.418Z,2191
2023-04-04T05:44:23.421Z,2191
2023-04-04T05:45:23.422Z,2191
2023-04-04T05:46:23.440Z,2191
2023-04-04T05:47:23.427Z,2173
2023-04-04T05:48:23.422Z,2173
2023-04-04T05:49:23.425Z,2173
2023-04-04T05:50:23.427Z,2173
2023-04-04T05:51:23.423Z,2173
2023-04-04T05:52:23.431Z,3243
2023-04-04T05:53:23.427Z,3243
2023-04-04T05:54:23.426Z,3243
2023-04-04T05:55:23.432Z,3243
2023-04-04T05:56:23.426Z,3243
2023-04-04T05:57:24.204Z,2187
2023-04-04T05:58:23.581Z,2187
2023-04-04T05:59:23.493Z,2187
2023-04-04T06:00:23.429Z,2187
2023-04-04T06:01:23.438Z,2187
2023-04-04T06:02:23.480Z,2636
2023-04-04T06:03:23.462Z,2636
2023-04-04T06:04:23.431Z,2636
2023-04-04T06:05:23.431Z,2636
2023-04-04T06:06:23.449Z,2636
2023-04-04T06:07:23.431Z,3435
2023-04-04T06:08:23.443Z,3435
2023-04-04T06:09:23.434Z,3435
2023-04-04T06:10:23.433Z,3435
2023-04-04T06:11:23.430Z,3435
2023-04-04T06:12:23.435Z,4201
2023-04-04T06:13:23.437Z,4201
2023-04-04T06:14:23.462Z,4201
2023-04-04T06:15:23.442Z,4201
2023-04-04T06:16:23.538Z,4201
2023-04-04T06:17:23.439Z,5006
2023-04-04T06:18:23.448Z,5073
2023-04-04T06:19:23.450Z,5073
2023-04-04T06:20:23.437Z,5073
2023-04-04T06:21:23.435Z,5073
2023-04-04T06:22:23.438Z,5073
2023-04-04T06:23:23.442Z,5513
2023-04-04T06:24:23.441Z,5469
2023-04-04T06:25:23.441Z,5469
2023-04-04T06:26:23.444Z,5469
2023-04-04T06:27:23.443Z,5469
2023-04-04T06:28:23.441Z,5683
2023-04-04T06:29:23.438Z,5769
2023-04-04T06:30:23.464Z,5794
2023-04-04T06:31:23.459Z,5820
2023-04-04T06:32:23.495Z,5820
2023-04-04T06:33:23.436Z,5897
2023-04-04T06:34:23.439Z,5947
2023-04-04T06:35:23.442Z,5988
2023-04-04T06:36:23.463Z,6048
2023-04-04T06:37:23.439Z,6118
2023-04-04T06:38:23.441Z,6155
2023-04-04T06:39:23.444Z,6133
2023-04-04T06:40:23.450Z,6242
2023-04-04T06:41:23.441Z,6242
2023-04-04T06:42:23.445Z,6242
2023-04-04T06:43:23.441Z,6378
2023-04-04T06:44:23.446Z,6378
2023-04-04T06:45:23.447Z,6451
2023-04-04T06:46:23.496Z,6451
2023-04-04T06:47:23.508Z,6530
2023-04-04T06:48:23.447Z,6530
2023-04-04T06:49:23.468Z,6530
2023-04-04T06:50:23.459Z,6738
2023-04-04T06:51:23.450Z,6733
2023-04-04T06:52:23.456Z,6745
2023-04-04T06:53:23.450Z,6855
2023-04-04T06:54:23.471Z,6863
2023-04-04T06:55:23.462Z,6917
2023-04-04T06:56:23.454Z,6966
2023-04-04T06:57:23.457Z,6995
2023-04-04T06:58:23.466Z,7015
2023-04-04T06:59:23.505Z,7037
2023-04-04T07:00:23.466Z,7037
2023-04-04T07:01:23.482Z,7037
2023-04-04T07:02:23.677Z,7094
2023-04-04T07:03:23.470Z,7104
2023-04-04T07:04:23.467Z,7171
2023-04-04T07:05:23.468Z,7214
2023-04-04T07:06:25.315Z,7276
2023-04-04T07:07:23.466Z,7290
2023-04-04T07:08:23.464Z,7305
2023-04-04T07:09:29.026Z,7318
2023-04-04T07:10:23.468Z,7398
2023-04-04T07:11:23.469Z,7435
2023-04-04T07:12:23.469Z,7459
2023-04-04T07:13:23.471Z,7489
2023-04-04T07:14:23.472Z,7518
2023-04-04T07:15:23.488Z,7574
2023-04-04T07:16:23.484Z,7607
2023-04-04T07:17:25.010Z,7651
2023-04-04T07:18:23.566Z,7651
2023-04-04T07:19:23.476Z,7766
2023-04-04T07:20:23.481Z,7764
2023-04-04T07:21:23.476Z,7764
2023-04-04T07:22:23.478Z,7764
2023-04-04T07:23:23.485Z,7849
2023-04-04T07:24:23.476Z,7842
2023-04-04T07:25:23.481Z,7822
2023-04-04T07:26:23.479Z,7820
2023-04-04T07:27:23.481Z,7832
2023-04-04T07:28:23.485Z,7878
2023-04-04T07:29:23.483Z,7838
2023-04-04T07:30:23.491Z,7838
2023-04-04T07:31:23.505Z,7842
2023-04-04T07:32:24.464Z,7880
2023-04-04T07:33:23.489Z,7876
2023-04-04T07:34:23.516Z,7925
2023-04-04T07:35:23.495Z,7938
2023-04-04T07:36:23.491Z,7938
2023-04-04T07:37:23.498Z,7997
2023-04-04T07:38:23.492Z,7969
2023-04-04T07:39:23.497Z,7982
2023-04-04T07:40:23.498Z,7967
2023-04-04T07:41:23.498Z,7991
2023-04-04T07:42:23.504Z,8000
2023-04-04T07:43:23.500Z,8033
2023-04-04T07:44:23.504Z,8015
2023-04-04T07:45:23.510Z,8017
2023-04-04T07:46:23.576Z,8050
2023-04-04T07:47:23.535Z,8037
2023-04-04T07:48:23.521Z,8041
2023-04-04T07:49:23.504Z,8020
2023-04-04T07:50:23.546Z,8059
2023-04-04T07:51:23.512Z,8091
2023-04-04T07:52:23.510Z,8065
2023-04-04T07:53:23.514Z,8072
2023-04-04T07:54:23.512Z,8057
2023-04-04T07:55:23.511Z,8082
2023-04-04T07:56:23.511Z,8076
2023-04-04T07:57:23.515Z,8134
2023-04-04T07:58:23.510Z,8141
2023-04-04T07:59:23.534Z,8117
2023-04-04T08:00:23.514Z,8115
2023-04-04T08:01:23.519Z,8108
2023-04-04T08:02:23.554Z,8151
2023-04-04T08:03:23.562Z,8098
2023-04-04T08:04:23.533Z,8102
2023-04-04T08:05:23.531Z,8104
2023-04-04T08:06:23.550Z,8128
2023-04-04T08:07:23.523Z,8171
2023-04-04T08:08:23.527Z,8170
2023-04-04T08:09:23.527Z,8168
2023-04-04T08:10:23.532Z,8156
2023-04-04T08:11:23.530Z,8138
2023-04-04T08:12:23.532Z,8125
2023-04-04T08:13:23.534Z,8130
2023-04-04T08:14:23.537Z,8117
2023-04-04T08:15:23.534Z,8091
2023-04-04T08:16:23.547Z,8119
2023-04-04T08:17:23.560Z,8080
2023-04-04T08:18:23.541Z,8084
2023-04-04T08:19:23.548Z,8059
2023-04-04T08:20:23.540Z,8119
2023-04-04T08:21:23.542Z,8100
2023-04-04T08:22:23.569Z,8158
2023-04-04T08:23:23.559Z,8183
2023-04-04T08:24:23.563Z,8158
2023-04-04T08:25:23.551Z,8236
2023-04-04T08:26:23.543Z,8337
2023-04-04T08:27:23.549Z,8354
2023-04-04T08:28:23.581Z,8346
2023-04-04T08:29:23.547Z,8268
2023-04-04T08:30:23.554Z,8209
2023-04-04T08:31:23.589Z,8171
2023-04-04T08:32:23.553Z,8168
2023-04-04T08:33:25.637Z,8204
2023-04-04T08:34:23.553Z,8170
2023-04-04T08:35:23.593Z,8230
2023-04-04T08:36:23.566Z,8274
2023-04-04T08:37:23.559Z,8281
2023-04-04T08:38:23.585Z,8306
2023-04-04T08:39:23.576Z,8348
2023-04-04T08:40:23.561Z,8308
2023-04-04T08:41:23.573Z,8320
2023-04-04T08:42:23.563Z,8364
2023-04-04T08:43:23.564Z,8395
2023-04-04T08:44:23.863Z,8414
2023-04-04T08:45:23.566Z,8381
2023-04-04T08:46:23.586Z,8362
2023-04-04T08:47:23.599Z,8312
2023-04-04T08:48:23.572Z,8289
2023-04-04T08:49:23.574Z,8272
2023-04-04T08:50:23.574Z,8278
2023-04-04T08:51:23.576Z,8253
2023-04-04T08:52:23.578Z,8274
2023-04-04T08:53:23.582Z,8245
2023-04-04T08:54:23.611Z,8238
2023-04-04T08:55:23.590Z,8278
2023-04-04T08:56:23.588Z,8274
2023-04-04T08:57:23.748Z,8257
2023-04-04T08:58:23.595Z,8264
2023-04-04T08:59:23.633Z,8270
2023-04-04T09:00:23.603Z,8238
2023-04-04T09:01:23.636Z,8226
2023-04-04T09:02:23.652Z,8260
2023-04-04T09:03:23.651Z,8308
2023-04-04T09:04:23.595Z,8293
2023-04-04T09:05:23.598Z,8279
2023-04-04T09:06:23.597Z,8291
2023-04-04T09:07:23.604Z,8168
2023-04-04T09:08:23.603Z,8151
2023-04-04T09:09:23.605Z,8111
2023-04-04T09:10:23.641Z,8215
2023-04-04T09:11:23.598Z,8194
2023-04-04T09:12:23.605Z,8285
2023-04-04T09:13:23.615Z,8291
2023-04-04T09:14:23.608Z,8299
2023-04-04T09:15:23.601Z,8354
2023-04-04T09:16:23.649Z,8354
2023-04-04T09:17:23.603Z,8327
2023-04-04T09:18:23.607Z,8262
2023-04-04T09:19:25.780Z,8236
2023-04-04T09:20:23.604Z,8299
2023-04-04T09:21:23.871Z,8306
2023-04-04T09:22:23.705Z,8251
2023-04-04T09:23:23.779Z,8329
2023-04-04T09:24:23.604Z,7971
2023-04-04T09:25:23.606Z,7989
2023-04-04T09:26:23.730Z,7912
2023-04-04T09:27:23.606Z,8110
2023-04-04T09:28:23.613Z,8019
2023-04-04T09:29:23.612Z,7907
2023-04-04T09:30:23.618Z,7995
2023-04-04T09:31:23.679Z,7918
2023-04-04T09:32:23.619Z,7998
2023-04-04T09:33:23.640Z,8006
2023-04-04T09:34:23.609Z,8035
2023-04-04T09:35:23.616Z,8022
2023-04-04T09:36:23.656Z,8024
2023-04-04T09:37:23.613Z,8022
2023-04-04T09:38:23.615Z,8037
2023-04-04T09:39:23.619Z,7949
2023-04-04T09:40:23.670Z,7936
2023-04-04T09:41:23.617Z,7925
2023-04-04T09:42:23.640Z,7898
2023-04-04T09:43:23.612Z,7900
2023-04-04T09:44:23.624Z,7889
2023-04-04T09:45:31.727Z,7878
2023-04-04T09:46:23.658Z,7887
2023-04-04T09:47:30.334Z,7856
2023-04-04T09:48:23.626Z,7823
2023-04-04T09:49:23.620Z,7823
2023-04-04T09:50:23.637Z,7784
2023-04-04T09:51:23.626Z,7757
2023-04-04T09:52:23.629Z,7782
2023-04-04T09:53:23.629Z,7764
2023-04-04T09:54:29.338Z,7811
2023-04-04T09:55:23.638Z,7789
2023-04-04T09:56:23.630Z,7900
2023-04-04T09:57:23.627Z,7905
2023-04-04T09:58:23.664Z,7932
2023-04-04T09:59:23.649Z,7973
2023-04-04T10:00:23.641Z,8015
2023-04-04T10:01:23.681Z,7997
2023-04-04T10:02:23.658Z,8002
2023-04-04T10:03:23.641Z,7960
2023-04-04T10:04:23.706Z,7885
2023-04-04T10:05:23.645Z,7823
2023-04-04T10:06:23.635Z,7791
2023-04-04T10:07:23.647Z,7754
2023-04-04T10:08:23.642Z,7750
2023-04-04T10:09:23.657Z,7725
2023-04-04T10:10:23.646Z,7737
2023-04-04T10:11:24.229Z,7788
2023-04-04T10:12:23.644Z,7752
2023-04-04T10:13:23.649Z,7775
2023-04-04T10:14:23.681Z,7797
2023-04-04T10:15:23.650Z,7750
2023-04-04T10:16:23.693Z,7746
2023-04-04T10:17:23.697Z,7757
2023-04-04T10:18:23.649Z,7759
2023-04-04T10:19:23.648Z,7741
2023-04-04T10:20:23.662Z,7732
2023-04-04T10:21:23.656Z,7770
2023-04-04T10:22:23.670Z,7777
2023-04-04T10:23:23.654Z,7709
2023-04-04T10:24:23.656Z,7656
2023-04-04T10:25:23.665Z,7721
2023-04-04T10:26:23.657Z,7721
2023-04-04T10:27:23.663Z,7665
2023-04-04T10:28:23.658Z,7668
2023-04-04T10:29:23.671Z,7952
2023-04-04T10:30:23.724Z,8020
2023-04-04T10:31:23.733Z,7938
2023-04-04T10:32:23.668Z,7546
2023-04-04T10:33:23.663Z,7729
2023-04-04T10:34:23.656Z,7612
2023-04-04T10:35:23.668Z,7501
2023-04-04T10:36:23.696Z,7376
2023-04-04T10:37:23.661Z,7534
2023-04-04T10:38:23.666Z,7483
2023-04-04T10:39:23.663Z,7471
2023-04-04T10:40:23.665Z,7463
2023-04-04T10:41:23.667Z,7403
2023-04-04T10:42:23.670Z,7456
2023-04-04T10:43:23.670Z,7367
2023-04-04T10:44:23.671Z,7504
2023-04-04T10:45:23.678Z,7506
2023-04-04T10:46:23.736Z,7549
2023-04-04T10:47:23.768Z,7501
2023-04-04T10:48:23.675Z,7492
2023-04-04T10:49:23.670Z,7509
2023-04-04T10:50:23.677Z,7508
2023-04-04T10:51:23.671Z,7440
2023-04-04T10:52:23.679Z,7099
2023-04-04T10:53:23.949Z,7308
2023-04-04T10:54:23.674Z,7379
2023-04-04T10:55:23.677Z,7349
2023-04-04T10:56:23.676Z,7384
2023-04-04T10:57:23.680Z,7354
2023-04-04T10:58:23.678Z,7381
2023-04-04T10:59:23.713Z,7406
2023-04-04T11:00:23.689Z,7415
2023-04-04T11:01:23.723Z,7458
2023-04-04T11:02:23.726Z,7413
2023-04-04T11:03:23.682Z,7386
2023-04-04T11:04:23.706Z,7389
2023-04-04T11:05:23.688Z,7367
2023-04-04T11:06:23.683Z,7381
2023-04-04T11:07:23.685Z,7345
2023-04-04T11:08:23.682Z,7286
2023-04-04T11:09:23.687Z,7221
2023-04-04T11:10:23.682Z,7223
2023-04-04T11:11:23.685Z,7283
2023-04-04T11:12:23.686Z,7306
2023-04-04T11:13:23.690Z,7327
2023-04-04T11:14:23.689Z,7347
2023-04-04T11:15:23.689Z,6795
2023-04-04T11:16:23.700Z,7827
2023-04-04T11:17:23.727Z,7005
2023-04-04T11:18:32.919Z,7350
2023-04-04T11:19:23.687Z,7374
2023-04-04T11:20:23.708Z,7316
2023-04-04T11:21:23.708Z,7303
2023-04-04T11:22:23.695Z,7321
2023-04-04T11:23:23.691Z,7248
2023-04-04T11:24:23.703Z,7206
2023-04-04T11:25:23.695Z,7155
2023-04-04T11:26:23.697Z,7106
2023-04-04T11:27:23.705Z,7106
2023-04-04T11:28:23.707Z,7106
2023-04-04T11:29:23.693Z,7106
2023-04-04T11:30:23.704Z,7089
2023-04-04T11:31:23.764Z,7097
2023-04-04T11:32:23.792Z,7106
2023-04-04T11:33:23.737Z,7106
2023-04-04T11:34:23.780Z,7086
2023-04-04T11:35:23.697Z,7068
2023-04-04T11:36:23.715Z,7088
2023-04-04T11:37:23.695Z,7088
2023-04-04T11:38:23.698Z,7068
2023-04-04T11:39:23.698Z,7026
2023-04-04T11:40:23.699Z,6978
2023-04-04T11:41:23.704Z,6933
2023-04-04T11:42:23.694Z,6917
2023-04-04T11:43:23.697Z,6882
2023-04-04T11:44:23.705Z,6893
2023-04-04T11:45:23.698Z,6863
2023-04-04T11:46:23.761Z,6822
2023-04-04T11:47:23.724Z,6794
2023-04-04T11:48:23.717Z,6812
2023-04-04T11:49:23.708Z,6770
2023-04-04T11:50:23.733Z,6756
2023-04-04T11:51:23.704Z,6758
2023-04-04T11:52:23.713Z,6759
2023-04-04T11:53:23.703Z,6745
2023-04-04T11:54:23.699Z,6717
2023-04-04T11:55:23.699Z,6720
2023-04-04T11:56:23.697Z,6728
2023-04-04T11:57:23.705Z,6690
2023-04-04T11:58:23.708Z,6659
2023-04-04T11:59:23.755Z,6660
2023-04-04T12:00:23.707Z,6680
2023-04-04T12:01:23.711Z,6694
2023-04-04T12:02:23.758Z,6719
2023-04-04T12:03:23.780Z,6734
2023-04-04T12:04:23.729Z,6708
2023-04-04T12:05:24.013Z,6719
2023-04-04T12:06:23.738Z,6705
2023-04-04T12:07:23.711Z,6687
2023-04-04T12:08:23.712Z,6705
2023-04-04T12:09:23.713Z,6688
2023-04-04T12:10:23.712Z,6668
2023-04-04T12:11:23.722Z,6713
2023-04-04T12:12:23.718Z,6679
2023-04-04T12:13:23.714Z,6667
2023-04-04T12:14:23.715Z,6660
2023-04-04T12:15:23.712Z,6702
2023-04-04T12:16:23.746Z,6724
2023-04-04T12:17:23.718Z,6676
2023-04-04T12:18:23.723Z,6650
2023-04-04T12:19:23.723Z,6621
2023-04-04T12:20:23.717Z,6668
2023-04-04T12:21:23.721Z,6703
2023-04-04T12:22:23.746Z,6734
2023-04-04T12:23:23.732Z,6756
2023-04-04T12:24:23.725Z,6694
2023-04-04T12:25:23.725Z,6687
2023-04-04T12:26:23.731Z,6656
2023-04-04T12:27:23.729Z,6624
2023-04-04T12:28:24.031Z,6699
2023-04-04T12:29:23.738Z,6724
2023-04-04T12:30:23.732Z,6716
2023-04-04T12:31:23.730Z,6722
2023-04-04T12:32:23.768Z,6714
2023-04-04T12:33:23.742Z,6724
2023-04-04T12:34:23.766Z,6750
2023-04-04T12:35:23.744Z,6717
2023-04-04T12:36:23.757Z,6575
2023-04-04T12:37:23.736Z,6688
2023-04-04T12:38:23.753Z,6630
2023-04-04T12:39:23.745Z,6613
2023-04-04T12:40:23.755Z,6663
2023-04-04T12:41:23.758Z,6670
2023-04-04T12:42:23.736Z,6608
2023-04-04T12:43:23.746Z,6734
2023-04-04T12:44:23.741Z,6722
2023-04-04T12:45:23.738Z,6717
2023-04-04T12:46:23.768Z,6728
2023-04-04T12:47:23.762Z,6697
2023-04-04T12:48:23.743Z,6716
2023-04-04T12:49:23.749Z,6717
2023-04-04T12:50:23.744Z,6769
2023-04-04T12:51:23.744Z,6728
2023-04-04T12:52:23.748Z,6744
2023-04-04T12:54:23.776Z,6730
2023-04-04T12:55:23.747Z,6713
2023-04-04T12:56:23.747Z,6750
2023-04-04T12:57:23.750Z,6776
2023-04-04T12:58:23.754Z,6936
2023-04-04T12:59:23.779Z,3120
2023-04-04T13:00:23.751Z,4581
2023-04-04T13:01:23.792Z,6728
2023-04-04T13:02:23.754Z,6639
2023-04-04T13:03:23.771Z,6543
2023-04-04T13:04:24.608Z,6567
2023-04-04T13:05:23.793Z,6640
2023-04-04T13:06:23.780Z,6699
2023-04-04T13:07:23.776Z,6682
2023-04-04T13:08:23.755Z,6663
2023-04-04T13:09:23.770Z,6595
2023-04-04T13:10:23.791Z,6592
2023-04-04T13:11:23.767Z,6555
2023-04-04T13:12:23.768Z,6542
2023-04-04T13:13:23.759Z,6104
2023-04-04T13:14:23.768Z,6262
2023-04-04T13:15:23.844Z,6584
2023-04-04T13:16:23.788Z,6578
2023-04-04T13:17:23.802Z,6537
2023-04-04T13:18:23.983Z,6542
2023-04-04T13:19:25.083Z,6539
2023-04-04T13:20:23.774Z,6521
2023-04-04T13:21:23.774Z,6519
2023-04-04T13:22:23.783Z,6598
2023-04-04T13:23:23.786Z,6525
2023-04-04T13:24:23.778Z,6428
2023-04-04T13:25:23.779Z,6387
2023-04-04T13:26:23.806Z,6337
2023-04-04T13:27:23.784Z,6286
2023-04-04T13:28:23.791Z,6268
2023-04-04T13:29:23.788Z,6257
2023-04-04T13:30:23.787Z,6266
2023-04-04T13:31:23.822Z,6276
2023-04-04T13:32:23.849Z,6286
2023-04-04T13:33:23.799Z,6256
2023-04-04T13:34:23.796Z,4338
2023-04-04T13:35:23.794Z,1966
2023-04-04T13:36:23.827Z,2979
2023-04-04T13:37:23.795Z,6224
2023-04-04T13:38:25.838Z,6150
2023-04-04T13:39:23.807Z,6203
2023-04-04T13:40:23.799Z,6163
2023-04-04T13:41:23.797Z,6160
2023-04-04T13:42:23.823Z,6077
2023-04-04T13:43:23.801Z,6044
2023-04-04T13:44:24.820Z,6042
2023-04-04T13:45:23.798Z,6003
2023-04-04T13:46:23.824Z,6003
2023-04-04T13:47:23.806Z,5948
2023-04-04T13:48:23.800Z,5957
2023-04-04T13:49:23.805Z,5939